Time;durP1;ratioP1;P1;durP2;ratioP2;P2;SDS_P1;SDS_P2;PMS_P1;PMS_P2;Temp;Humidity;BMP_temperature;BMP_pressure;BME280_temperature;BME280_humidity;BME280_pressure;Samples;Min_cycle;Max_cycle;Signal;HPM_P1;HPM_P2
2021/03/22 00:02:09;;;;;;;21.00;9.90;;;0.30;48.80;;;;;;4253769;33;20093;-36
2021/03/22 00:04:36;;;;;;;21.87;9.20;;;0.20;48.80;;;;;;4238977;33;20085;-37
2021/03/22 00:07:03;;;;;;;20.20;8.50;;;0.20;48.90;;;;;;4239294;33;20535;-37
2021/03/22 00:09:29;;;;;;;23.93;8.73;;;0.20;48.90;;;;;;4239266;33;20084;-38
2021/03/22 00:11:56;;;;;;;19.50;8.60;;;0.10;48.90;;;;;;4208562;34;20073;-37
2021/03/22 00:14:22;;;;;;;21.87;9.30;;;0.10;48.90;;;;;;4211057;34;20530;-37
2021/03/22 00:16:49;;;;;;;23.13;9.17;;;0.00;48.90;;;;;;4211548;34;20073;-38
2021/03/22 00:19:16;;;;;;;25.57;10.80;;;0.00;49.60;;;;;;4195708;34;20070;-36
2021/03/22 00:21:42;;;;;;;21.50;10.30;;;0.00;49.10;;;;;;4194712;34;20113;-37
2021/03/22 00:24:09;;;;;;;19.63;9.03;;;0.00;49.10;;;;;;4195244;34;20054;-38
2021/03/22 00:26:36;;;;;;;22.83;9.40;;;-0.10;49.00;;;;;;4195112;34;20524;-38
2021/03/22 00:29:03;;;;;;;21.50;9.10;;;-0.10;49.00;;;;;;4206114;34;20081;-37
2021/03/22 00:31:30;;;;;;;25.87;10.80;;;-0.10;49.10;;;;;;4208253;33;20574;-37
2021/03/22 00:33:57;;;;;;;24.57;9.83;;;-0.10;49.10;;;;;;4236565;33;20073;-37
2021/03/22 00:36:24;;;;;;;24.80;9.27;;;-0.20;49.10;;;;;;4236601;33;20233;-37
2021/03/22 00:38:51;;;;;;;19.60;9.60;;;-0.20;49.30;;;;;;4238495;33;20090;-38
2021/03/22 00:41:17;;;;;;;25.53;10.90;;;-0.30;49.40;;;;;;4230637;33;20093;-37
2021/03/22 00:43:44;;;;;;;27.33;10.63;;;-0.30;49.50;;;;;;4265431;33;20083;-37
2021/03/22 00:46:10;;;;;;;25.43;10.43;;;-0.30;49.70;;;;;;4246520;33;20064;-37
2021/03/22 00:48:37;;;;;;;26.37;10.53;;;-0.40;50.30;;;;;;4277260;33;20549;-37
2021/03/22 00:51:06;;;;;;;26.63;10.90;;;-0.40;49.90;;;;;;4306774;33;20074;-37
2021/03/22 00:53:34;;;;;;;32.10;12.67;;;-0.50;50.10;;;;;;4301809;33;20082;-37
2021/03/22 00:56:00;;;;;;;28.47;11.97;;;-0.40;50.00;;;;;;4313333;33;20079;-37
2021/03/22 00:58:27;;;;;;;21.60;10.03;;;-0.50;50.00;;;;;;4313397;33;20172;-38
2021/03/22 01:00:56;;;;;;;26.20;10.30;;;-0.50;50.10;;;;;;4313488;33;20139;-38
2021/03/22 01:03:29;;;;;;;29.80;11.07;;;-0.50;50.20;;;;;;4313344;33;20085;-38
2021/03/22 01:05:56;;;;;;;29.73;12.63;;;-0.60;50.30;;;;;;4276962;33;20159;-38
2021/03/22 01:08:25;;;;;;;21.87;9.97;;;-0.60;50.50;;;;;;4299154;33;20550;-37
2021/03/22 01:10:57;;;;;;;29.80;11.77;;;-0.70;50.40;;;;;;4330017;33;20074;-38
2021/03/22 01:13:31;;;;;;;27.77;11.73;;;-0.70;50.60;;;;;;4342383;33;20086;-37
2021/03/22 01:15:58;;;;;;;24.60;10.63;;;-0.70;50.70;;;;;;4329812;33;20074;-38
2021/03/22 01:18:31;;;;;;;27.33;10.63;;;-0.80;50.50;;;;;;4330346;33;20099;-38
2021/03/22 01:21:40;;;;;;;27.70;10.43;;;-0.80;50.60;;;;;;4342617;33;20523;-37
2021/03/22 01:24:08;;;;;;;25.03;11.17;;;-0.80;50.60;;;;;;4342038;33;20103;-38
2021/03/22 01:26:36;;;;;;;24.17;12.23;;;-0.80;50.50;;;;;;4342425;33;20077;-37
2021/03/22 01:29:08;;;;;;;29.27;11.37;;;-0.90;50.50;;;;;;4330181;33;20145;-37
2021/03/22 01:31:35;;;;;;;30.50;13.23;;;-0.90;50.60;;;;;;4330115;33;20079;-37
2021/03/22 01:34:01;;;;;;;26.20;11.27;;;-1.00;50.50;;;;;;4329883;33;20168;-37
2021/03/22 01:36:30;;;;;;;25.73;11.40;;;-1.00;50.50;;;;;;4342313;33;20079;-37
2021/03/22 01:39:05;;;;;;;33.23;13.67;;;-1.10;50.60;;;;;;4318208;33;20082;-37
2021/03/22 01:41:45;;;;;;;23.00;10.63;;;-1.10;50.70;;;;;;4333509;33;20059;-37
2021/03/22 01:44:44;;;;;;;31.23;10.83;;;-1.20;50.60;;;;;;4343131;33;20172;-38
2021/03/22 01:47:16;;;;;;;29.67;11.90;;;-1.20;50.80;;;;;;4343857;32;20617;-38
2021/03/22 01:50:19;;;;;;;23.00;8.40;;;-1.20;50.70;;;;;;4345232;32;20086;-37
2021/03/22 01:52:47;;;;;;;26.50;10.80;;;-1.20;50.70;;;;;;4357994;32;20558;-37
2021/03/22 01:55:14;;;;;;;29.20;11.53;;;-1.20;50.70;;;;;;4359941;32;20065;-36
2021/03/22 01:57:42;;;;;;;28.30;11.77;;;-1.20;50.80;;;;;;4330214;33;20527;-37
2021/03/22 02:00:32;;;;;;;32.30;12.57;;;-1.20;50.90;;;;;;4342581;33;20146;-36
2021/03/22 02:03:13;;;;;;;30.57;12.43;;;-1.20;50.80;;;;;;4342376;33;20642;-37
2021/03/22 02:05:51;;;;;;;29.57;11.83;;;-1.20;50.80;;;;;;4317659;33;20078;-37
2021/03/22 02:08:23;;;;;;;30.07;13.43;;;-1.20;50.70;;;;;;4329115;33;20153;-37
2021/03/22 02:10:50;;;;;;;32.20;13.63;;;-1.20;50.50;;;;;;4327924;33;20192;-37
2021/03/22 02:13:20;;;;;;;33.63;15.20;;;-1.20;50.50;;;;;;4330262;33;20098;-37
2021/03/22 02:15:47;;;;;;;32.17;12.93;;;-1.20;50.50;;;;;;4306949;33;20102;-38
2021/03/22 02:19:04;;;;;;;30.80;12.17;;;-1.20;50.50;;;;;;4317892;33;20206;-37
2021/03/22 02:22:07;;;;;;;32.07;12.47;;;-1.30;50.40;;;;;;4320813;33;20072;-37
2021/03/22 02:25:18;;;;;;;28.13;10.27;;;-1.30;50.30;;;;;;4330522;33;20071;-36
2021/03/22 02:28:08;;;;;;;25.60;10.93;;;-1.30;50.30;;;;;;4321605;33;20084;-36
2021/03/22 02:31:15;;;;;;;33.67;11.43;;;-1.30;50.30;;;;;;4331020;33;20623;-36
2021/03/22 02:34:18;;;;;;;28.73;10.53;;;-1.30;50.40;;;;;;4329822;33;20071;-37
2021/03/22 02:37:07;;;;;;;33.87;12.50;;;-1.40;50.30;;;;;;4346855;32;20067;-37
2021/03/22 02:39:41;;;;;;;34.63;13.07;;;-1.40;50.40;;;;;;4347335;32;20073;-38
2021/03/22 02:42:08;;;;;;;30.67;12.27;;;-1.40;50.50;;;;;;4299555;33;20075;-38
2021/03/22 02:44:36;;;;;;;32.97;12.67;;;-1.40;50.50;;;;;;4293284;33;20063;-38
2021/03/22 02:47:34;;;;;;;26.80;11.07;;;-1.40;50.60;;;;;;4314407;33;20071;-37
2021/03/22 02:50:08;;;;;;;32.47;13.20;;;-1.40;50.80;;;;;;4313758;33;20075;-38
2021/03/22 02:53:27;;;;;;;31.02;11.32;;;-1.40;50.60;;;;;;4314611;33;20526;-37
2021/03/22 02:56:00;;;;;;;34.30;12.40;;;-1.40;50.60;;;;;;4315694;33;20244;-36
2021/03/22 02:58:38;;;;;;;32.63;12.13;;;-1.30;50.60;;;;;;4314743;33;20066;-37
2021/03/22 03:01:22;;;;;;;31.43;12.77;;;-1.30;50.80;;;;;;4291510;33;20075;-38
2021/03/22 03:03:51;;;;;;;35.73;11.33;;;-1.30;50.80;;;;;;4314282;33;20082;-36
2021/03/22 03:06:18;;;;;;;34.30;13.43;;;-1.30;50.80;;;;;;4290746;33;20098;-36
2021/03/22 03:08:45;;;;;;;35.70;11.80;;;-1.30;50.80;;;;;;4314335;33;20082;-37
2021/03/22 03:11:12;;;;;;;30.33;11.20;;;-1.20;50.90;;;;;;4326214;33;20055;-37
2021/03/22 03:13:39;;;;;;;24.80;10.30;;;-1.20;50.90;;;;;;4301889;33;20539;-36
2021/03/22 03:16:06;;;;;;;25.53;11.27;;;-1.10;50.90;;;;;;4284811;33;20536;-36
2021/03/22 03:18:33;;;;;;;30.20;11.30;;;-1.10;50.90;;;;;;4297976;33;20079;-38
2021/03/22 03:20:59;;;;;;;28.27;11.43;;;-1.00;50.80;;;;;;4299498;33;20072;-38
2021/03/22 03:23:28;;;;;;;33.80;12.37;;;-1.00;50.80;;;;;;4299831;33;20133;-37
2021/03/22 03:25:54;;;;;;;27.03;12.13;;;-0.90;50.70;;;;;;4299327;33;20091;-38
2021/03/22 03:28:21;;;;;;;26.97;11.70;;;-0.90;50.70;;;;;;4299714;33;20093;-43
2021/03/22 03:30:48;;;;;;;31.57;12.73;;;-0.90;50.60;;;;;;4287585;33;20072;-37
2021/03/22 03:33:14;;;;;;;26.97;12.10;;;-0.80;50.70;;;;;;4299345;33;20151;-36
2021/03/22 03:35:43;;;;;;;30.53;12.73;;;-0.80;50.70;;;;;;4299301;33;20093;-37
2021/03/22 03:38:10;;;;;;;32.33;14.17;;;-0.80;50.90;;;;;;4287397;33;20087;-37
2021/03/22 03:40:44;;;;;;;37.70;14.17;;;-0.80;50.90;;;;;;4311450;33;20060;-36
2021/03/22 03:43:11;;;;;;;32.90;12.60;;;-0.70;51.20;;;;;;4299868;33;20063;-37
2021/03/22 03:45:51;;;;;;;31.47;12.50;;;-0.70;51.20;;;;;;4311192;33;20074;-38
2021/03/22 03:48:25;;;;;;;30.93;12.33;;;-0.60;51.40;;;;;;4341228;33;20515;-38
2021/03/22 03:50:58;;;;;;;31.08;12.77;;;-0.60;51.60;;;;;;4341488;33;20090;-38
2021/03/22 03:53:25;;;;;;;33.33;12.57;;;-0.50;51.70;;;;;;4341840;33;20075;-38
2021/03/22 03:55:52;;;;;;;28.43;11.60;;;-0.40;52.20;;;;;;4341654;33;20097;-36
2021/03/22 03:58:19;;;;;;;33.63;12.87;;;-0.30;52.30;;;;;;4341572;33;20139;-36
2021/03/22 04:00:46;;;;;;;27.17;11.20;;;-0.20;52.60;;;;;;4342782;32;20067;-38
2021/03/22 04:03:26;;;;;;;25.03;10.70;;;0.00;52.70;;;;;;4329449;33;20061;-36
2021/03/22 04:06:03;;;;;;;26.33;11.27;;;0.20;52.50;;;;;;4343047;32;20170;-39
2021/03/22 04:08:31;;;;;;;25.50;10.30;;;0.40;52.40;;;;;;4341533;33;20078;-37
2021/03/22 04:10:59;;;;;;;22.67;11.10;;;0.60;52.10;;;;;;4340352;33;20164;-36
2021/03/22 04:13:26;;;;;;;24.97;10.80;;;0.80;52.10;;;;;;4317353;33;20070;-37
2021/03/22 04:15:53;;;;;;;23.70;9.97;;;1.00;52.30;;;;;;4330906;33;20541;-37
2021/03/22 04:18:19;;;;;;;22.90;11.27;;;1.20;52.50;;;;;;4343781;33;20059;-37
2021/03/22 04:20:46;;;;;;;22.60;9.80;;;1.50;52.40;;;;;;4343357;33;20059;-37
2021/03/22 04:23:13;;;;;;;23.40;10.63;;;1.80;52.30;;;;;;4343121;33;20597;-38
2021/03/22 04:25:39;;;;;;;16.20;7.57;;;2.10;51.80;;;;;;4330680;33;20079;-37
2021/03/22 04:28:06;;;;;;;22.97;9.90;;;2.40;51.70;;;;;;4328139;33;20574;-38
2021/03/22 04:30:32;;;;;;;24.13;10.03;;;2.70;51.50;;;;;;4299333;33;20163;-38
2021/03/22 04:32:59;;;;;;;21.43;8.10;;;3.00;50.90;;;;;;4299277;33;20129;-37
2021/03/22 04:35:25;;;;;;;20.90;9.50;;;3.20;50.10;;;;;;4275008;33;20083;-37
2021/03/22 04:37:52;;;;;;;19.33;8.73;;;3.50;49.90;;;;;;4286677;33;20091;-38
2021/03/22 04:40:28;;;;;;;23.33;9.33;;;3.80;49.60;;;;;;4298959;33;20530;-39
2021/03/22 04:42:54;;;;;;;22.57;11.07;;;4.10;48.80;;;;;;4298586;33;20234;-39
2021/03/22 04:45:25;;;;;;;21.57;10.03;;;4.30;47.70;;;;;;4269849;33;20500;-39
2021/03/22 04:47:52;;;;;;;21.67;9.43;;;4.60;47.60;;;;;;4269961;33;20148;-38
2021/03/22 04:50:21;;;;;;;18.33;8.93;;;4.80;47.40;;;;;;4270185;33;20099;-39
2021/03/22 04:52:48;;;;;;;25.90;10.70;;;5.00;46.50;;;;;;4258011;33;20179;-37
2021/03/22 04:55:14;;;;;;;20.50;9.30;;;5.20;46.60;;;;;;4269724;33;20150;-37
2021/03/22 04:57:41;;;;;;;12.47;5.73;;;5.30;45.90;;;;;;4269870;33;20088;-37
2021/03/22 05:00:19;;;;;;;17.10;9.67;;;5.40;45.40;;;;;;4296240;33;20163;-39
2021/03/22 05:02:45;;;;;;;20.30;8.13;;;5.50;45.20;;;;;;4269606;33;20091;-38
2021/03/22 05:05:12;;;;;;;12.20;5.67;;;5.60;44.60;;;;;;4269442;33;20146;-37
2021/03/22 05:07:39;;;;;;;20.37;9.10;;;5.60;44.60;;;;;;4274573;33;20064;-38
2021/03/22 05:10:07;;;;;;;20.20;7.97;;;5.60;44.80;;;;;;4284319;33;20141;-39
2021/03/22 05:12:33;;;;;;;22.10;10.53;;;5.50;44.90;;;;;;4283885;33;20072;-38
2021/03/22 05:15:00;;;;;;;19.53;9.97;;;5.50;44.90;;;;;;4284052;33;20064;-38
2021/03/22 05:17:27;;;;;;;24.47;12.67;;;5.50;45.00;;;;;;4325538;33;20590;-38
2021/03/22 05:19:53;;;;;;;21.17;9.50;;;5.50;45.20;;;;;;4298129;33;20067;-38
2021/03/22 05:22:20;;;;;;;22.37;10.03;;;5.50;45.80;;;;;;4286123;33;20558;-38
2021/03/22 05:24:46;;;;;;;18.90;10.07;;;5.40;45.10;;;;;;4285926;33;20452;-39
2021/03/22 05:27:13;;;;;;;22.20;10.23;;;5.40;45.40;;;;;;4285843;33;20138;-38
2021/03/22 05:29:40;;;;;;;19.20;9.97;;;5.40;45.60;;;;;;4298096;33;20082;-38
2021/03/22 05:32:33;;;;;;;19.53;10.20;;;5.40;45.60;;;;;;4298252;33;20075;-38
2021/03/22 05:35:00;;;;;;;22.27;9.70;;;5.50;45.80;;;;;;4268824;33;20092;-38
2021/03/22 05:37:27;;;;;;;20.53;10.43;;;5.50;45.60;;;;;;4269533;33;20072;-37
2021/03/22 05:39:53;;;;;;;20.47;9.67;;;5.60;45.40;;;;;;4274514;33;20060;-38
2021/03/22 05:43:00;;;;;;;19.77;10.93;;;5.60;45.50;;;;;;4259639;33;20158;-38
2021/03/22 05:45:32;;;;;;;23.77;10.97;;;5.60;45.40;;;;;;4298030;33;20595;-38
2021/03/22 05:48:35;;;;;;;19.50;10.00;;;5.60;45.60;;;;;;4298100;33;20067;-37
2021/03/22 05:51:41;;;;;;;21.17;10.30;;;5.70;45.60;;;;;;4309160;33;20097;-38
2021/03/22 05:54:41;;;;;;;20.80;8.43;;;5.70;45.50;;;;;;4342006;33;20075;-39
2021/03/22 05:57:27;;;;;;;14.63;6.70;;;5.80;45.90;;;;;;4341715;33;20674;-39
2021/03/22 06:00:06;;;;;;;24.27;9.93;;;6.00;46.10;;;;;;4316974;33;20162;-37
2021/03/22 06:03:04;;;;;;;12.83;7.37;;;6.10;45.90;;;;;;4318127;33;20070;-39
2021/03/22 06:05:37;;;;;;;20.90;10.10;;;6.30;45.70;;;;;;4327292;33;20552;-37
2021/03/22 06:09:02;;;;;;;16.17;8.70;;;6.50;45.80;;;;;;4341536;33;20095;-37
2021/03/22 06:11:59;;;;;;;22.70;10.77;;;6.60;45.50;;;;;;4297875;33;20060;-38
2021/03/22 06:15:00;;;;;;;17.00;8.77;;;6.80;45.30;;;;;;4287567;33;20074;-38
2021/03/22 06:17:43;;;;;;;16.30;8.03;;;7.00;45.10;;;;;;4285173;33;20576;-39
2021/03/22 06:20:32;;;;;;;13.13;7.43;;;7.20;45.20;;;;;;4285355;33;20086;-39
2021/03/22 06:23:26;;;;;;;14.70;8.10;;;7.40;45.10;;;;;;4297681;33;20095;-40
2021/03/22 06:25:53;;;;;;;16.87;7.70;;;7.60;44.60;;;;;;4297818;33;20483;-40
2021/03/22 06:28:38;;;;;;;13.33;8.27;;;7.80;44.80;;;;;;4297574;33;20079;-41
2021/03/22 06:31:09;;;;;;;;;;;8.10;44.50;;;;;;4286073;33;20550;-40
2021/03/22 06:33:45;;;;;;;13.07;6.47;;;8.40;44.60;;;;;;4297876;33;19970;-40
2021/03/22 06:36:17;;;;;;;19.23;6.97;;;8.90;44.10;;;;;;4297722;33;20099;-40
2021/03/22 06:38:50;;;;;;;15.70;7.13;;;9.30;43.70;;;;;;4297478;33;20091;-40
2021/03/22 06:41:42;;;;;;;8.55;5.37;;;9.80;43.20;;;;;;4285265;33;20079;-39
2021/03/22 06:44:16;;;;;;;13.95;6.50;;;10.30;42.20;;;;;;4297673;33;20172;-39
2021/03/22 06:47:01;;;;;;;15.57;7.80;;;10.70;41.00;;;;;;4322604;32;20087;-39
2021/03/22 06:49:31;;;;;;;10.88;5.60;;;11.20;39.90;;;;;;4343696;32;20518;-40
2021/03/22 06:52:01;;;;;;;15.63;7.37;;;11.60;39.90;;;;;;4343640;33;20055;-41
2021/03/22 06:54:55;;;;;;;15.88;8.18;;;11.90;38.70;;;;;;4342116;33;20070;-40
2021/03/22 06:57:24;;;;;;;15.40;8.15;;;12.30;38.20;;;;;;4340233;33;20075;-40
2021/03/22 07:00:19;;;;;;;13.35;6.53;;;12.60;37.40;;;;;;4342370;33;20608;-43
2021/03/22 07:02:51;;;;;;;12.97;6.97;;;13.00;37.10;;;;;;4343650;33;20063;-41
2021/03/22 07:05:29;;;;;;;8.60;5.75;;;13.40;36.40;;;;;;4343391;33;20091;-41
2021/03/22 07:07:59;;;;;;;12.77;8.60;;;13.70;35.30;;;;;;4343807;33;20141;-42
2021/03/22 07:10:53;;;;;;;13.38;8.40;;;14.10;34.00;;;;;;4344048;33;20082;-42
2021/03/22 07:13:31;;;;;;;15.48;8.98;;;14.10;33.30;;;;;;4343587;32;20051;-41
2021/03/22 07:16:19;;;;;;;11.18;6.82;;;14.00;33.10;;;;;;4343869;33;20083;-41
2021/03/22 07:19:25;;;;;;;11.75;6.97;;;14.00;33.20;;;;;;4342348;33;20047;-41
2021/03/22 07:22:02;;;;;;;12.27;8.50;;;13.90;33.50;;;;;;4342711;33;20077;-43
2021/03/22 07:25:07;;;;;;;14.07;9.00;;;13.90;32.90;;;;;;4343351;33;20152;-42
2021/03/22 07:27:41;;;;;;;15.07;8.68;;;13.80;33.30;;;;;;4342282;33;20141;-42
2021/03/22 07:30:33;;;;;;;14.63;8.85;;;13.60;33.10;;;;;;4342194;33;20148;-43
2021/03/22 07:33:16;;;;;;;13.20;7.68;;;13.20;33.10;;;;;;4343185;33;20070;-42
2021/03/22 07:36:07;;;;;;;12.07;7.68;;;12.70;33.30;;;;;;4343766;33;20089;-42
2021/03/22 07:39:10;;;;;;;11.85;8.82;;;12.20;34.00;;;;;;4342669;32;20174;-42
2021/03/22 07:42:30;;;;;;;12.10;8.02;;;11.80;35.00;;;;;;4342983;32;20093;-42
2021/03/22 07:45:17;;;;;;;16.25;8.30;;;11.60;35.80;;;;;;4311050;33;20063;-42
2021/03/22 07:48:11;;;;;;;15.43;9.32;;;11.40;35.60;;;;;;4295378;33;20086;-42
2021/03/22 07:51:16;;;;;;;12.55;6.78;;;11.20;36.20;;;;;;4299801;33;20524;-42
2021/03/22 07:53:49;;;;;;;14.18;8.73;;;11.10;36.40;;;;;;4297673;33;20130;-43
2021/03/22 07:56:53;;;;;;;12.13;6.53;;;11.10;36.50;;;;;;4287483;33;20079;-41
2021/03/22 07:59:30;;;;;;;12.37;5.95;;;11.00;36.60;;;;;;4255917;33;20060;-41
2021/03/22 08:02:22;;;;;;;14.35;8.77;;;11.20;37.00;;;;;;4256146;33;20089;-41
2021/03/22 08:04:51;;;;;;;16.33;7.93;;;11.30;36.10;;;;;;4256246;33;20129;-41
2021/03/22 08:07:48;;;;;;;14.65;8.23;;;11.40;36.40;;;;;;4256625;33;20088;-49
2021/03/22 08:10:32;;;;;;;13.80;7.50;;;11.50;36.10;;;;;;4256395;33;20073;-41
2021/03/22 08:13:25;;;;;;;18.52;8.32;;;11.60;36.00;;;;;;4256517;33;20096;-42
2021/03/22 08:15:57;;;;;;;11.43;6.75;;;11.60;35.70;;;;;;4256287;33;20526;-43
2021/03/22 08:18:47;;;;;;;11.52;7.43;;;11.50;35.30;;;;;;4256285;33;20526;-44
2021/03/22 08:21:36;;;;;;;15.38;4.47;;;11.50;35.50;;;;;;4284814;33;20068;-41
2021/03/22 08:24:33;;;;;;;9.98;5.30;;;11.50;35.30;;;;;;4303473;33;20588;-42
2021/03/22 08:27:05;;;;;;;14.05;7.32;;;11.50;35.50;;;;;;4301589;33;20060;-41
2021/03/22 08:29:35;;;;;;;11.68;7.90;;;11.40;35.00;;;;;;4307259;33;20582;-40
2021/03/22 08:32:32;;;;;;;11.63;7.47;;;11.30;35.20;;;;;;4331883;33;20553;-42
2021/03/22 08:35:21;;;;;;;11.63;6.85;;;11.10;35.30;;;;;;4345669;32;20075;-41
2021/03/22 08:38:10;;;;;;;10.32;5.35;;;10.90;36.10;;;;;;4345796;32;20482;-42
2021/03/22 08:40:51;;;;;;;10.27;6.35;;;11.00;36.20;;;;;;4345486;32;20063;-42
2021/03/22 08:43:52;;;;;;;11.55;5.90;;;11.10;36.20;;;;;;4344642;33;20101;-42
2021/03/22 08:46:18;;;;;;;10.48;5.30;;;11.30;35.70;;;;;;4344369;33;20078;-39
2021/03/22 08:48:45;;;;;;;14.27;7.33;;;11.40;35.30;;;;;;4356090;32;20100;-43
2021/03/22 08:51:33;;;;;;;10.68;6.30;;;11.50;36.40;;;;;;4359023;32;20086;-42
2021/03/22 08:54:00;;;;;;;12.15;5.78;;;11.60;35.40;;;;;;4358810;32;20058;-42
2021/03/22 08:56:36;;;;;;;12.07;6.37;;;11.60;35.30;;;;;;4346009;32;20047;-42
2021/03/22 08:59:10;;;;;;;8.27;5.30;;;11.60;35.30;;;;;;4342404;32;20069;-42
2021/03/22 09:01:39;;;;;;;8.88;5.70;;;11.50;35.60;;;;;;4330428;33;20090;-41
2021/03/22 09:04:32;;;;;;;11.52;5.80;;;11.50;35.30;;;;;;4330301;33;20560;-42
2021/03/22 09:07:03;;;;;;;10.27;6.10;;;11.40;35.10;;;;;;4342921;33;20067;-41
2021/03/22 09:09:33;;;;;;;5.97;2.90;;;11.30;34.80;;;;;;4330623;33;20078;-40
2021/03/22 09:12:07;;;;;;;8.40;4.85;;;11.10;35.00;;;;;;4342899;33;20075;-40
2021/03/22 09:14:43;;;;;;;9.68;5.18;;;10.90;35.60;;;;;;4331168;33;20062;-40
2021/03/22 09:17:34;;;;;;;7.80;3.87;;;10.60;35.70;;;;;;4330766;33;20652;-39
2021/03/22 09:20:47;;;;;;;8.87;5.40;;;10.40;36.60;;;;;;4331391;33;20070;-42
2021/03/22 09:23:32;;;;;;;7.83;5.23;;;10.20;36.20;;;;;;4284126;33;20072;-39
2021/03/22 09:26:01;;;;;;;10.50;5.50;;;10.00;36.50;;;;;;4284106;33;20083;-41
2021/03/22 09:28:28;;;;;;;8.27;4.72;;;9.90;37.10;;;;;;4304480;33;20072;-41
2021/03/22 09:31:02;;;;;;;8.50;4.30;;;10.00;37.70;;;;;;4342359;33;20141;-41
2021/03/22 09:33:55;;;;;;;8.45;4.97;;;10.20;37.90;;;;;;4330592;33;20200;-42
2021/03/22 09:36:29;;;;;;;10.70;5.80;;;10.40;37.50;;;;;;4349853;32;20082;-41
2021/03/22 09:38:56;;;;;;;11.48;5.07;;;10.60;37.10;;;;;;4358337;32;20100;-42
2021/03/22 09:42:10;;;;;;;7.43;3.97;;;10.70;36.60;;;;;;4359607;32;20092;-42
2021/03/22 09:44:59;;;;;;;6.05;4.35;;;10.70;36.50;;;;;;4342600;32;20137;-42
2021/03/22 09:47:33;;;;;;;7.78;4.70;;;10.90;36.20;;;;;;4355468;32;20067;-41
2021/03/22 09:50:05;;;;;;;8.43;3.97;;;11.00;36.70;;;;;;4331264;33;20152;-42
2021/03/22 09:52:40;;;;;;;10.35;4.03;;;11.10;37.00;;;;;;4344559;33;20161;-42
2021/03/22 09:55:25;;;;;;;9.68;3.83;;;11.20;35.70;;;;;;4342856;33;20157;-41
2021/03/22 09:57:52;;;;;;;7.57;4.32;;;11.30;35.70;;;;;;4344274;33;20089;-40
2021/03/22 10:00:35;;;;;;;7.95;4.18;;;11.30;35.10;;;;;;4330970;33;20104;-39
2021/03/22 10:03:45;;;;;;;7.37;3.87;;;11.30;35.30;;;;;;4342991;33;20463;-41
2021/03/22 10:06:57;;;;;;;8.05;3.83;;;11.20;35.10;;;;;;4342545;33;20092;-40
2021/03/22 10:09:34;;;;;;;9.82;4.47;;;11.00;35.30;;;;;;4344438;33;20499;-41
2021/03/22 10:12:14;;;;;;;12.25;3.47;;;10.80;35.30;;;;;;4343427;33;20080;-40
2021/03/22 10:14:43;;;;;;;7.95;4.68;;;10.80;36.00;;;;;;4342813;33;20603;-41
2021/03/22 10:17:28;;;;;;;7.32;3.00;;;10.80;35.90;;;;;;4330561;33;20071;-41
2021/03/22 10:20:05;;;;;;;8.00;4.20;;;10.80;36.10;;;;;;4331173;33;20132;-41
2021/03/22 10:22:32;;;;;;;8.65;4.65;;;10.90;35.50;;;;;;4330015;33;20072;-42
2021/03/22 10:25:20;;;;;;;6.97;3.67;;;10.90;35.10;;;;;;4342930;33;20106;-42
2021/03/22 10:27:46;;;;;;;5.20;3.58;;;10.90;36.00;;;;;;4330898;33;20543;-42
2021/03/22 10:30:20;;;;;;;5.57;3.53;;;11.00;35.10;;;;;;4343975;33;20175;-41
2021/03/22 10:33:02;;;;;;;5.07;3.60;;;10.90;34.70;;;;;;4343971;33;20070;-42
2021/03/22 10:35:43;;;;;;;7.62;3.62;;;10.80;35.50;;;;;;4343727;33;20603;-41
2021/03/22 10:38:15;;;;;;;5.28;2.78;;;10.80;35.40;;;;;;4319425;33;20553;-42
2021/03/22 10:40:41;;;;;;;3.45;2.95;;;10.70;35.40;;;;;;4318897;33;20071;-41
2021/03/22 10:43:39;;;;;;;6.35;2.35;;;10.60;34.40;;;;;;4343870;33;20082;-41
2021/03/22 10:46:27;;;;;;;5.70;3.50;;;10.50;35.00;;;;;;4343657;33;20138;-41
2021/03/22 10:49:21;;;;;;;4.90;3.37;;;10.40;35.50;;;;;;4342248;32;20151;-40
2021/03/22 10:51:53;;;;;;;6.30;2.90;;;10.40;35.90;;;;;;4345712;32;20155;-40
2021/03/22 10:54:22;;;;;;;5.25;3.83;;;10.40;36.30;;;;;;4357288;32;20082;-41
2021/03/22 10:56:56;;;;;;;9.68;3.28;;;10.40;35.70;;;;;;4358652;32;20532;-42
2021/03/22 10:59:31;;;;;;;9.85;3.22;;;10.40;35.90;;;;;;4357536;32;20605;-41
2021/03/22 11:02:01;;;;;;;4.87;3.40;;;10.40;35.80;;;;;;4357007;32;20050;-41
2021/03/22 11:04:33;;;;;;;6.00;3.42;;;10.40;35.40;;;;;;4356639;32;20622;-40
2021/03/22 11:07:11;;;;;;;4.75;3.05;;;10.30;35.30;;;;;;4357963;32;20106;-46
2021/03/22 11:09:37;;;;;;;5.67;3.50;;;10.30;35.10;;;;;;4356967;32;20062;-42
2021/03/22 11:12:05;;;;;;;5.28;1.87;;;10.20;35.30;;;;;;4357330;32;20531;-41
2021/03/22 11:14:32;;;;;;;4.62;2.67;;;10.10;35.30;;;;;;4356856;32;20074;-41
2021/03/22 11:17:13;;;;;;;4.20;2.73;;;10.10;35.20;;;;;;4332600;32;20215;-40
2021/03/22 11:19:44;;;;;;;4.28;2.87;;;10.10;35.40;;;;;;4333395;32;20446;-39
2021/03/22 11:22:36;;;;;;;5.40;2.67;;;10.10;35.60;;;;;;4358467;32;20090;-40
2021/03/22 11:25:30;;;;;;;3.90;3.20;;;9.90;36.00;;;;;;4345112;32;20550;-41
2021/03/22 11:28:15;;;;;;;5.03;2.97;;;9.90;35.90;;;;;;4341216;33;20159;-41
2021/03/22 11:30:54;;;;;;;5.57;3.05;;;9.80;36.00;;;;;;4341237;33;20071;-40
2021/03/22 11:33:41;;;;;;;7.25;2.67;;;9.80;36.40;;;;;;4341027;33;20552;-41
2021/03/22 11:36:18;;;;;;;7.73;3.13;;;9.70;36.70;;;;;;4340648;33;20098;-40
2021/03/22 11:38:54;;;;;;;8.07;4.57;;;9.70;36.90;;;;;;4328583;33;20081;-41
2021/03/22 11:41:52;;;;;;;7.85;3.92;;;9.70;37.00;;;;;;4328360;33;20494;-42
2021/03/22 11:44:34;;;;;;;4.57;3.25;;;9.60;37.10;;;;;;4320809;33;20087;-39
2021/03/22 11:47:45;;;;;;;6.83;3.60;;;9.50;36.90;;;;;;4328223;33;20579;-39
2021/03/22 11:50:35;;;;;;;7.13;4.10;;;9.40;36.90;;;;;;4325547;33;20170;-40
2021/03/22 11:53:21;;;;;;;9.07;5.03;;;9.20;37.80;;;;;;4326030;33;20141;-40
2021/03/22 11:55:52;;;;;;;6.63;4.17;;;9.10;38.30;;;;;;4325854;33;20097;-40
2021/03/22 11:58:39;;;;;;;7.00;3.83;;;8.90;38.70;;;;;;4329444;33;20109;-38
2021/03/22 12:01:19;;;;;;;4.30;2.97;;;8.80;39.10;;;;;;4341378;33;20100;-39
2021/03/22 12:03:46;;;;;;;4.23;2.80;;;8.60;39.20;;;;;;4342902;32;20063;-39
2021/03/22 12:06:16;;;;;;;6.10;3.40;;;8.50;39.40;;;;;;4342763;32;20094;-38
2021/03/22 12:08:51;;;;;;;9.63;4.63;;;8.50;39.70;;;;;;4325220;33;20103;-39
2021/03/22 12:11:23;;;;;;;9.95;3.28;;;8.40;40.10;;;;;;4313601;33;20063;-38
2021/03/22 12:13:52;;;;;;;6.37;4.10;;;8.40;40.40;;;;;;4314389;33;20107;-37
2021/03/22 12:16:21;;;;;;;5.20;2.53;;;8.40;40.70;;;;;;4313850;33;20082;-39
2021/03/22 12:18:48;;;;;;;7.60;3.97;;;8.30;40.70;;;;;;4313584;33;20071;-40
2021/03/22 12:21:16;;;;;;;6.20;3.63;;;8.40;41.20;;;;;;4313847;33;20087;-38
2021/03/22 12:23:43;;;;;;;4.90;3.23;;;8.40;41.10;;;;;;4325771;33;20060;-38
2021/03/22 12:26:13;;;;;;;6.97;4.53;;;8.40;40.80;;;;;;4325515;33;20071;-40
2021/03/22 12:28:54;;;;;;;7.60;4.00;;;8.40;40.90;;;;;;4313718;33;20089;-39
2021/03/22 12:31:27;;;;;;;8.07;3.50;;;8.40;41.00;;;;;;4314468;33;20094;-40
2021/03/22 12:33:59;;;;;;;8.17;4.27;;;8.50;41.10;;;;;;4314374;33;20063;-38
2021/03/22 12:36:26;;;;;;;9.77;5.03;;;8.50;41.00;;;;;;4328215;33;20075;-40
2021/03/22 12:38:53;;;;;;;9.00;5.07;;;8.50;41.10;;;;;;4330814;33;20635;-39
2021/03/22 12:41:28;;;;;;;8.47;5.37;;;8.50;41.10;;;;;;4345211;33;20043;-40
2021/03/22 12:43:57;;;;;;;10.33;6.73;;;8.40;41.30;;;;;;4332441;33;20512;-40
2021/03/22 12:46:24;;;;;;;10.63;6.43;;;8.40;41.60;;;;;;4343983;32;20496;-41
2021/03/22 12:48:51;;;;;;;12.13;7.87;;;8.30;41.60;;;;;;4343934;33;20059;-37
2021/03/22 12:51:18;;;;;;;13.67;6.90;;;8.20;41.90;;;;;;4345418;32;20585;-38
2021/03/22 12:53:45;;;;;;;16.37;11.10;;;8.10;42.20;;;;;;4343750;33;20551;-38
2021/03/22 12:56:13;;;;;;;19.57;8.80;;;8.00;42.60;;;;;;4344888;32;20071;-38
2021/03/22 12:58:39;;;;;;;11.37;8.00;;;7.90;42.90;;;;;;4343533;33;20515;-38
2021/03/22 13:01:06;;;;;;;17.87;8.93;;;7.80;43.20;;;;;;4345121;32;20573;-37
2021/03/22 13:03:33;;;;;;;15.47;8.93;;;7.80;43.50;;;;;;4327355;33;20087;-38
2021/03/22 13:06:00;;;;;;;15.30;8.67;;;7.80;43.60;;;;;;4315617;33;20498;-39
2021/03/22 13:08:28;;;;;;;19.90;7.90;;;7.70;43.90;;;;;;4327533;33;20075;-39
2021/03/22 13:10:56;;;;;;;12.27;7.17;;;7.60;44.10;;;;;;4315793;33;20098;-38
2021/03/22 13:13:23;;;;;;;13.67;7.77;;;7.60;44.20;;;;;;4327481;33;20178;-37
2021/03/22 13:15:52;;;;;;;15.57;8.90;;;7.50;44.60;;;;;;4315234;33;20161;-38
2021/03/22 13:18:25;;;;;;;13.20;7.90;;;7.50;44.80;;;;;;4316074;33;20254;-37
2021/03/22 13:20:57;;;;;;;18.13;9.57;;;7.40;45.00;;;;;;4327993;33;20074;-37
2021/03/22 13:23:25;;;;;;;19.27;9.20;;;7.30;45.40;;;;;;4316031;33;20091;-37
2021/03/22 13:25:52;;;;;;;16.63;8.70;;;7.30;45.80;;;;;;4315609;33;20146;-38
2021/03/22 13:28:22;;;;;;;14.77;8.27;;;7.20;46.00;;;;;;4315539;33;20575;-37
2021/03/22 13:30:49;;;;;;;19.73;9.07;;;7.10;46.10;;;;;;4327830;33;20095;-38